Siem Pilot — LCPF — position and weather

sailwx.info

Track history (hours):
 
Tides and Currents Weather Stations Pressure Air Temp Water Temp Dewpoint Dewpoint Depression Visibility Wind Speed Wind Dir Waves Ship Positions

Siem Pilot

Last reported at 2014-Nov-20 02:24 UTC. Time now 2014-Nov-22 14:28 UTC.
Position N 57°45' W 001°29'.

Length 88 m; draft 5.6 m.

Type: Cargo ship. MMSI: 257458000.

Date/timePositionNaut miles runAvg speedWind from/ knotsBaromVisibWave heightAir tempDewpointWater temp
2014-Nov-20 02:24N 57°45' W 001°29'1011.5
2014-Nov-20 01:33N 57°37' W 001°36'1110.9
2014-Nov-20 00:34N 57°27' W 001°44'2110.2
2014-Nov-19 22:32N 57°09' W 002°03'1 1.1
2014-Nov-19 21:34N 57°08' W 002°05'0 0.0
2014-Nov-19 20:34N 57°08' W 002°05'0 0.0
2014-Nov-19 19:34N 57°08' W 002°05'0 0.0
2014-Nov-19 18:34N 57°08' W 002°05'0 0.2
2014-Nov-19 17:34N 57°08' W 002°05'0 0.1
2014-Nov-19 16:34N 57°08' W 002°05'0 0.0
2014-Nov-19 15:34N 57°08' W 002°05'0 0.0
2014-Nov-19 14:34N 57°08' W 002°05'0 0.0
2014-Nov-19 13:33N 57°08' W 002°05'13 4.0
2014-Nov-19 10:23N 57°19' W 001°51'13 9.8
2014-Nov-19 09:05N 57°08' W 002°04'0 0.8
2014-Nov-19 08:32N 57°09' W 002°05'0 0.0
2014-Nov-19 07:32N 57°09' W 002°05'0 0.0
2014-Nov-19 06:32N 57°09' W 002°05'0 0.0
2014-Nov-19 05:32N 57°09' W 002°05'0 0.0
2014-Nov-19 04:32N 57°09' W 002°05'0 0.0
2014-Nov-19 03:32N 57°09' W 002°05'0 0.0
2014-Nov-19 02:32N 57°09' W 002°05'0 0.0
2014-Nov-19 01:32N 57°09' W 002°05'0 0.0
2014-Nov-19 00:32N 57°09' W 002°05'0 0.0
2014-Nov-18 23:32N 57°09' W 002°05'0 0.0
2014-Nov-18 22:32N 57°09' W 002°05'2 1.7
2014-Nov-18 21:28N 57°09' W 002°02'13 4.4
2014-Nov-18 18:33N 57°14' W 001°40'1111.0
2014-Nov-18 17:33N 57°18' W 001°21'1210.9
2014-Nov-18 16:29N 57°23' W 001°01'21311.2
2014-Nov-17 21:24N 58°46' E 005°09'1011.4
2014-Nov-17 20:33N 58°50' E 005°26'1010.4
2014-Nov-17 19:33N 59°00' E 005°33'8 7.7
2014-Nov-17 18:33N 59°01' E 005°48'9 9.0
2014-Nov-17 17:33N 58°52' E 005°45'0 0.0
2014-Nov-17 16:32N 58°52' E 005°45'0 0.0
2014-Nov-17 15:32N 58°52' E 005°45'0 0.0
2014-Nov-17 14:32N 58°52' E 005°45'0 0.0
2014-Nov-17 13:32N 58°52' E 005°45'0 0.0
2014-Nov-17 12:32N 58°52' E 005°45'0 0.0
2014-Nov-17 11:32N 58°52' E 005°45'0 0.0
2014-Nov-17 10:32N 58°52' E 005°45'0 0.0
2014-Nov-17 09:32N 58°52' E 005°45'0 0.0
2014-Nov-17 08:32N 58°52' E 005°45'0 0.0
2014-Nov-17 07:32N 58°52' E 005°45'0 0.0
2014-Nov-17 06:32N 58°52' E 005°45'0 0.0
2014-Nov-17 05:32N 58°52' E 005°45'0 0.0
2014-Nov-17 04:32N 58°52' E 005°45'0 0.0
2014-Nov-17 03:32N 58°52' E 005°45'0 0.0
2014-Nov-17 02:32N 58°52' E 005°45'0 0.0
2014-Nov-17 01:32N 58°52' E 005°45'0 0.0
2014-Nov-17 00:32N 58°52' E 005°45'0 0.0
2014-Nov-16 23:32N 58°52' E 005°45'0 0.0
2014-Nov-16 22:32N 58°52' E 005°45'0 0.0
2014-Nov-16 21:32N 58°52' E 005°45'0 0.0
2014-Nov-16 20:32N 58°52' E 005°45'0 0.0
2014-Nov-16 19:32N 58°52' E 005°45'0 0.0
2014-Nov-16 18:32N 58°52' E 005°45'0 0.0
2014-Nov-16 17:32N 58°52' E 005°45'0 0.0
2014-Nov-16 16:32N 58°52' E 005°45'0 0.0
2014-Nov-16 15:32N 58°52' E 005°45'0 0.0
2014-Nov-16 14:32N 58°52' E 005°45'0 0.0
2014-Nov-16 13:32N 58°52' E 005°45'0 0.0
2014-Nov-16 12:32N 58°52' E 005°45'0 0.0
2014-Nov-16 11:32N 58°52' E 005°45'0 0.0
2014-Nov-16 10:32N 58°52' E 005°45'0 0.0
2014-Nov-16 09:32N 58°52' E 005°45'0 0.0
2014-Nov-16 08:32N 58°52' E 005°45'0 0.0
2014-Nov-16 07:32N 58°52' E 005°45'0 0.0
2014-Nov-16 06:32N 58°52' E 005°45'0 0.0
2014-Nov-16 05:32N 58°52' E 005°45'0 0.0
2014-Nov-16 04:32N 58°52' E 005°45'0 0.0
2014-Nov-16 03:32N 58°52' E 005°45'0 0.0
2014-Nov-16 02:32N 58°52' E 005°45'0 0.0
2014-Nov-16 01:32N 58°52' E 005°45'0 0.0
2014-Nov-16 00:32N 58°52' E 005°45'0 0.0
2014-Nov-15 23:32N 58°52' E 005°45'0 0.0
2014-Nov-15 22:32N 58°52' E 005°45'0 0.0
2014-Nov-15 21:32N 58°52' E 005°45'0 0.0
2014-Nov-15 20:32N 58°52' E 005°45'0 0.0
2014-Nov-15 19:32N 58°52' E 005°45'0 0.0
2014-Nov-15 18:32N 58°52' E 005°45'0 0.0
2014-Nov-15 17:32N 58°52' E 005°45'0 0.0
2014-Nov-15 16:32N 58°52' E 005°45'0 0.0
2014-Nov-15 15:32N 58°52' E 005°45'0 0.0
2014-Nov-15 14:32N 58°52' E 005°45'0 0.0
2014-Nov-15 13:32N 58°52' E 005°45'0 0.0
2014-Nov-15 12:32N 58°52' E 005°45'0 0.0
2014-Nov-15 11:32N 58°52' E 005°45'0 0.0
2014-Nov-15 10:32N 58°52' E 005°45'0 0.0
2014-Nov-15 09:32N 58°52' E 005°45'0 0.0
2014-Nov-15 08:32N 58°52' E 005°45'0 0.0
2014-Nov-15 07:32N 58°52' E 005°45'0 0.0
2014-Nov-15 06:32N 58°52' E 005°45'0 0.0
2014-Nov-15 05:29N 58°52' E 005°45'0 0.0
2014-Nov-15 04:32N 58°52' E 005°45'0 0.0
2014-Nov-15 03:32N 58°52' E 005°45'0 0.0
2014-Nov-15 02:32N 58°52' E 005°45'0 0.0
2014-Nov-15 01:32N 58°52' E 005°45'0 0.0
2014-Nov-15 00:32N 58°52' E 005°45'0 0.0
2014-Nov-14 23:32N 58°52' E 005°45'0 0.0
2014-Nov-14 22:32N 58°52' E 005°45'0 0.0
2014-Nov-14 21:32N 58°52' E 005°45'0 0.0
2014-Nov-14 20:32N 58°52' E 005°45'0 0.0
2014-Nov-14 19:32N 58°52' E 005°45'0 0.0
2014-Nov-14 18:32N 58°52' E 005°45'0 0.0
2014-Nov-14 17:32N 58°52' E 005°45'0 0.0
2014-Nov-14 16:32N 58°52' E 005°45'0 0.0
2014-Nov-14 15:29N 58°52' E 005°45'0 0.0
2014-Nov-14 14:29N 58°52' E 005°45'0 0.0
2014-Nov-14 12:32N 58°52' E 005°45'0 0.0
2014-Nov-14 11:32N 58°52' E 005°45'0 0.0
2014-Nov-14 10:32N 58°52' E 005°45'0 0.0
2014-Nov-14 09:32N 58°52' E 005°45'0 0.0
2014-Nov-14 08:32N 58°52' E 005°45'0 0.0
2014-Nov-14 07:32N 58°52' E 005°45'0 0.0
2014-Nov-14 06:32N 58°52' E 005°45'0 0.0
2014-Nov-14 05:32N 58°52' E 005°45'0 0.0
2014-Nov-14 04:32N 58°52' E 005°45'0 0.0
2014-Nov-14 03:32N 58°52' E 005°45'0 0.0
2014-Nov-14 02:32N 58°52' E 005°45'0 0.0
2014-Nov-14 01:32N 58°52' E 005°45'0 0.0
2014-Nov-14 00:32N 58°52' E 005°45'0 0.0
2014-Nov-13 23:32N 58°52' E 005°45'0 0.0
2014-Nov-13 22:32N 58°52' E 005°45'0 0.0
2014-Nov-13 21:32N 58°52' E 005°45'0 0.0
2014-Nov-13 20:32N 58°52' E 005°45'0 0.0
2014-Nov-13 19:32N 58°52' E 005°45'0 0.0
2014-Nov-13 18:32N 58°52' E 005°45'0 0.0
2014-Nov-13 17:32N 58°52' E 005°45'0 0.0
2014-Nov-13 16:32N 58°52' E 005°45'0 0.0
2014-Nov-13 15:32N 58°52' E 005°45'0 0.0
2014-Nov-13 14:32N 58°52' E 005°45'0 0.0
2014-Nov-13 13:32N 58°52' E 005°45'0 0.0
2014-Nov-13 12:32N 58°52' E 005°45'0 0.0
2014-Nov-13 11:29N 58°52' E 005°45'0 0.0
2014-Nov-13 10:32N 58°52' E 005°45'0 0.0
2014-Nov-13 09:32N 58°52' E 005°45'0 0.0
2014-Nov-13 08:29N 58°52' E 005°45'0 0.0
2014-Nov-13 07:32N 58°52' E 005°45'0 0.0
2014-Nov-13 06:32N 58°52' E 005°45'0 0.0
2014-Nov-13 05:32N 58°52' E 005°45'0 0.0
2014-Nov-13 04:32N 58°52' E 005°45'0 0.0
2014-Nov-13 03:32N 58°52' E 005°45'0 0.0
2014-Nov-13 02:32N 58°52' E 005°45'0 0.0
2014-Nov-13 01:32N 58°52' E 005°45'0 0.0
2014-Nov-13 00:32N 58°52' E 005°45'0 0.0
2014-Nov-12 23:32N 58°52' E 005°45'0 0.0
2014-Nov-12 22:32N 58°52' E 005°45'0 0.0
2014-Nov-12 21:29N 58°52' E 005°45'0 0.0
2014-Nov-12 20:32N 58°52' E 005°45'0 0.0
2014-Nov-12 19:32N 58°52' E 005°45'0 0.0
2014-Nov-12 18:32N 58°52' E 005°45'0 0.0
2014-Nov-12 17:32N 58°52' E 005°45'0 0.0
2014-Nov-12 16:32N 58°52' E 005°45'0 0.0
2014-Nov-12 15:32N 58°52' E 005°45'0 0.0
2014-Nov-12 14:32N 58°52' E 005°45'0 0.0
2014-Nov-12 13:32N 58°52' E 005°45'0 0.0
2014-Nov-12 12:32N 58°52' E 005°45'0 0.0
2014-Nov-12 11:32N 58°52' E 005°45'0 0.0
2014-Nov-12 10:32N 58°52' E 005°45'0 0.0
2014-Nov-12 09:32N 58°52' E 005°45'0 0.0
2014-Nov-12 08:29N 58°52' E 005°45'0 0.0
2014-Nov-12 07:32N 58°52' E 005°45'0 0.0
2014-Nov-12 06:32N 58°52' E 005°45'0 0.0
2014-Nov-12 05:29N 58°52' E 005°45'0 0.0
2014-Nov-12 04:32N 58°52' E 005°45'0 0.0
2014-Nov-12 03:32N 58°52' E 005°45'0 0.0
2014-Nov-12 02:32N 58°52' E 005°45'0 0.0
2014-Nov-12 01:32N 58°52' E 005°45'0 0.0
2014-Nov-12 00:32N 58°52' E 005°45'0 0.0
2014-Nov-11 23:32N 58°52' E 005°45'0 0.0
2014-Nov-11 22:32N 58°52' E 005°45'0 0.0
2014-Nov-11 21:32N 58°52' E 005°45'0 0.0
2014-Nov-11 20:32N 58°52' E 005°45'0 0.0
2014-Nov-11 19:32N 58°52' E 005°45'0 0.0
2014-Nov-11 18:32N 58°52' E 005°45'0 0.0
2014-Nov-11 17:32N 58°52' E 005°45'0 0.0
2014-Nov-11 16:32N 58°52' E 005°45'0 0.0
2014-Nov-11 15:32N 58°52' E 005°45'0 0.0
2014-Nov-11 14:32N 58°52' E 005°45'0 0.0
2014-Nov-11 13:32N 58°52' E 005°45'0 0.0
2014-Nov-11 12:32N 58°52' E 005°45'0 0.0
2014-Nov-11 11:32N 58°52' E 005°45'0 0.0
2014-Nov-11 10:32N 58°52' E 005°45'0 0.0
2014-Nov-11 09:32N 58°52' E 005°45'0 0.0
2014-Nov-11 08:32N 58°52' E 005°45'0 0.0
2014-Nov-11 07:32N 58°52' E 005°45'0 0.0
2014-Nov-11 06:32N 58°52' E 005°45'0 0.0
2014-Nov-11 05:32N 58°52' E 005°45'0 0.0
2014-Nov-11 04:32N 58°52' E 005°45'0 0.0
2014-Nov-11 03:32N 58°52' E 005°45'0 0.0
2014-Nov-11 02:32N 58°52' E 005°45'0 0.0
2014-Nov-11 01:32N 58°52' E 005°45'0 0.0
2014-Nov-11 00:32N 58°52' E 005°45'0 0.0
2014-Nov-10 23:32N 58°52' E 005°45'0 0.0
2014-Nov-10 22:32N 58°52' E 005°45'0 0.0
2014-Nov-10 21:32N 58°52' E 005°45'0 0.0
2014-Nov-10 20:32N 58°52' E 005°45'0 0.0
2014-Nov-10 19:32N 58°52' E 005°45'0 0.0
2014-Nov-10 18:32N 58°52' E 005°45'0 0.0
2014-Nov-10 17:32N 58°52' E 005°45'0 0.0
2014-Nov-10 16:32N 58°52' E 005°45'0 0.0
2014-Nov-10 15:32N 58°52' E 005°45'0 0.0
2014-Nov-10 14:32N 58°52' E 005°45'0 0.0
2014-Nov-10 13:32N 58°52' E 005°45'0 0.0
2014-Nov-10 12:29N 58°52' E 005°45'0 0.0
2014-Nov-10 11:32N 58°52' E 005°45'0 0.0
2014-Nov-10 10:32N 58°52' E 005°45'0 0.0
2014-Nov-10 09:32N 58°52' E 005°45'0 0.0
2014-Nov-10 08:32N 58°52' E 005°45'0 0.0
2014-Nov-10 07:32N 58°52' E 005°45'0 0.0
2014-Nov-10 06:32N 58°52' E 005°45'0 0.0
2014-Nov-10 05:32N 58°52' E 005°45'0 0.0
2014-Nov-10 04:32N 58°52' E 005°45'0 0.0
2014-Nov-10 03:32N 58°52' E 005°45'0 0.0
2014-Nov-10 02:32N 58°52' E 005°45'  
Track history (hours):
 
Tides and Currents Weather Stations Pressure Air Temp Water Temp Dewpoint Dewpoint Depression Visibility Wind Speed Wind Dir Waves Ship Positions

Siem Pilot

Last reported at 2014-Nov-20 02:24 UTC. Time now 2014-Nov-22 14:28 UTC.
Position N 57°45' W 001°29'.

Length 88 m; draft 5.6 m.

Type: Cargo ship. MMSI: 257458000.

Date/timePositionNaut miles runAvg speedWind from/ knotsBaromVisibWave heightAir tempDewpointWater temp
2014-Nov-20 02:24N 57°45' W 001°29'1011.5
2014-Nov-20 01:33N 57°37' W 001°36'1110.9
2014-Nov-20 00:34N 57°27' W 001°44'2110.2
2014-Nov-19 22:32N 57°09' W 002°03'1 1.1
2014-Nov-19 21:34N 57°08' W 002°05'0 0.0
2014-Nov-19 20:34N 57°08' W 002°05'0 0.0
2014-Nov-19 19:34N 57°08' W 002°05'0 0.0
2014-Nov-19 18:34N 57°08' W 002°05'0 0.2
2014-Nov-19 17:34N 57°08' W 002°05'0 0.1
2014-Nov-19 16:34N 57°08' W 002°05'0 0.0
2014-Nov-19 15:34N 57°08' W 002°05'0 0.0
2014-Nov-19 14:34N 57°08' W 002°05'0 0.0
2014-Nov-19 13:33N 57°08' W 002°05'13 4.0
2014-Nov-19 10:23N 57°19' W 001°51'13 9.8
2014-Nov-19 09:05N 57°08' W 002°04'0 0.8
2014-Nov-19 08:32N 57°09' W 002°05'0 0.0
2014-Nov-19 07:32N 57°09' W 002°05'0 0.0
2014-Nov-19 06:32N 57°09' W 002°05'0 0.0
2014-Nov-19 05:32N 57°09' W 002°05'0 0.0
2014-Nov-19 04:32N 57°09' W 002°05'0 0.0
2014-Nov-19 03:32N 57°09' W 002°05'0 0.0
2014-Nov-19 02:32N 57°09' W 002°05'0 0.0
2014-Nov-19 01:32N 57°09' W 002°05'0 0.0
2014-Nov-19 00:32N 57°09' W 002°05'0 0.0
2014-Nov-18 23:32N 57°09' W 002°05'0 0.0
2014-Nov-18 22:32N 57°09' W 002°05'2 1.7
2014-Nov-18 21:28N 57°09' W 002°02'13 4.4
2014-Nov-18 18:33N 57°14' W 001°40'1111.0
2014-Nov-18 17:33N 57°18' W 001°21'1210.9
2014-Nov-18 16:29N 57°23' W 001°01'21311.2
2014-Nov-17 21:24N 58°46' E 005°09'1011.4
2014-Nov-17 20:33N 58°50' E 005°26'1010.4
2014-Nov-17 19:33N 59°00' E 005°33'8 7.7
2014-Nov-17 18:33N 59°01' E 005°48'9 9.0
2014-Nov-17 17:33N 58°52' E 005°45'0 0.0
2014-Nov-17 16:32N 58°52' E 005°45'0 0.0
2014-Nov-17 15:32N 58°52' E 005°45'0 0.0
2014-Nov-17 14:32N 58°52' E 005°45'0 0.0
2014-Nov-17 13:32N 58°52' E 005°45'0 0.0
2014-Nov-17 12:32N 58°52' E 005°45'0 0.0
2014-Nov-17 11:32N 58°52' E 005°45'0 0.0
2014-Nov-17 10:32N 58°52' E 005°45'0 0.0
2014-Nov-17 09:32N 58°52' E 005°45'0 0.0
2014-Nov-17 08:32N 58°52' E 005°45'0 0.0
2014-Nov-17 07:32N 58°52' E 005°45'0 0.0
2014-Nov-17 06:32N 58°52' E 005°45'0 0.0
2014-Nov-17 05:32N 58°52' E 005°45'0 0.0
2014-Nov-17 04:32N 58°52' E 005°45'0 0.0
2014-Nov-17 03:32N 58°52' E 005°45'0 0.0
2014-Nov-17 02:32N 58°52' E 005°45'0 0.0
2014-Nov-17 01:32N 58°52' E 005°45'0 0.0
2014-Nov-17 00:32N 58°52' E 005°45'0 0.0
2014-Nov-16 23:32N 58°52' E 005°45'0 0.0
2014-Nov-16 22:32N 58°52' E 005°45'0 0.0
2014-Nov-16 21:32N 58°52' E 005°45'0 0.0
2014-Nov-16 20:32N 58°52' E 005°45'0 0.0
2014-Nov-16 19:32N 58°52' E 005°45'0 0.0
2014-Nov-16 18:32N 58°52' E 005°45'0 0.0
2014-Nov-16 17:32N 58°52' E 005°45'0 0.0
2014-Nov-16 16:32N 58°52' E 005°45'0 0.0
2014-Nov-16 15:32N 58°52' E 005°45'0 0.0
2014-Nov-16 14:32N 58°52' E 005°45'0 0.0
2014-Nov-16 13:32N 58°52' E 005°45'0 0.0
2014-Nov-16 12:32N 58°52' E 005°45'0 0.0
2014-Nov-16 11:32N 58°52' E 005°45'0 0.0
2014-Nov-16 10:32N 58°52' E 005°45'0 0.0
2014-Nov-16 09:32N 58°52' E 005°45'0 0.0
2014-Nov-16 08:32N 58°52' E 005°45'0 0.0
2014-Nov-16 07:32N 58°52' E 005°45'0 0.0
2014-Nov-16 06:32N 58°52' E 005°45'0 0.0
2014-Nov-16 05:32N 58°52' E 005°45'0 0.0
2014-Nov-16 04:32N 58°52' E 005°45'0 0.0
2014-Nov-16 03:32N 58°52' E 005°45'0 0.0
2014-Nov-16 02:32N 58°52' E 005°45'0 0.0
2014-Nov-16 01:32N 58°52' E 005°45'0 0.0
2014-Nov-16 00:32N 58°52' E 005°45'0 0.0
2014-Nov-15 23:32N 58°52' E 005°45'0 0.0
2014-Nov-15 22:32N 58°52' E 005°45'0 0.0
2014-Nov-15 21:32N 58°52' E 005°45'0 0.0
2014-Nov-15 20:32N 58°52' E 005°45'0 0.0
2014-Nov-15 19:32N 58°52' E 005°45'0 0.0
2014-Nov-15 18:32N 58°52' E 005°45'0 0.0
2014-Nov-15 17:32N 58°52' E 005°45'0 0.0
2014-Nov-15 16:32N 58°52' E 005°45'0 0.0
2014-Nov-15 15:32N 58°52' E 005°45'0 0.0
2014-Nov-15 14:32N 58°52' E 005°45'0 0.0
2014-Nov-15 13:32N 58°52' E 005°45'0 0.0
2014-Nov-15 12:32N 58°52' E 005°45'0 0.0
2014-Nov-15 11:32N 58°52' E 005°45'0 0.0
2014-Nov-15 10:32N 58°52' E 005°45'0 0.0
2014-Nov-15 09:32N 58°52' E 005°45'0 0.0
2014-Nov-15 08:32N 58°52' E 005°45'0 0.0
2014-Nov-15 07:32N 58°52' E 005°45'0 0.0
2014-Nov-15 06:32N 58°52' E 005°45'0 0.0
2014-Nov-15 05:29N 58°52' E 005°45'0 0.0
2014-Nov-15 04:32N 58°52' E 005°45'0 0.0
2014-Nov-15 03:32N 58°52' E 005°45'0 0.0
2014-Nov-15 02:32N 58°52' E 005°45'0 0.0
2014-Nov-15 01:32N 58°52' E 005°45'0 0.0
2014-Nov-15 00:32N 58°52' E 005°45'0 0.0
2014-Nov-14 23:32N 58°52' E 005°45'0 0.0
2014-Nov-14 22:32N 58°52' E 005°45'0 0.0
2014-Nov-14 21:32N 58°52' E 005°45'0 0.0
2014-Nov-14 20:32N 58°52' E 005°45'0 0.0
2014-Nov-14 19:32N 58°52' E 005°45'0 0.0
2014-Nov-14 18:32N 58°52' E 005°45'0 0.0
2014-Nov-14 17:32N 58°52' E 005°45'0 0.0
2014-Nov-14 16:32N 58°52' E 005°45'0 0.0
2014-Nov-14 15:29N 58°52' E 005°45'0 0.0
2014-Nov-14 14:29N 58°52' E 005°45'0 0.0
2014-Nov-14 12:32N 58°52' E 005°45'0 0.0
2014-Nov-14 11:32N 58°52' E 005°45'0 0.0
2014-Nov-14 10:32N 58°52' E 005°45'0 0.0
2014-Nov-14 09:32N 58°52' E 005°45'0 0.0
2014-Nov-14 08:32N 58°52' E 005°45'0 0.0
2014-Nov-14 07:32N 58°52' E 005°45'0 0.0
2014-Nov-14 06:32N 58°52' E 005°45'0 0.0
2014-Nov-14 05:32N 58°52' E 005°45'0 0.0
2014-Nov-14 04:32N 58°52' E 005°45'0 0.0
2014-Nov-14 03:32N 58°52' E 005°45'0 0.0
2014-Nov-14 02:32N 58°52' E 005°45'0 0.0
2014-Nov-14 01:32N 58°52' E 005°45'0 0.0
2014-Nov-14 00:32N 58°52' E 005°45'0 0.0
2014-Nov-13 23:32N 58°52' E 005°45'0 0.0
2014-Nov-13 22:32N 58°52' E 005°45'0 0.0
2014-Nov-13 21:32N 58°52' E 005°45'0 0.0
2014-Nov-13 20:32N 58°52' E 005°45'0 0.0
2014-Nov-13 19:32N 58°52' E 005°45'0 0.0
2014-Nov-13 18:32N 58°52' E 005°45'0 0.0
2014-Nov-13 17:32N 58°52' E 005°45'0 0.0
2014-Nov-13 16:32N 58°52' E 005°45'0 0.0
2014-Nov-13 15:32N 58°52' E 005°45'0 0.0
2014-Nov-13 14:32N 58°52' E 005°45'0 0.0
2014-Nov-13 13:32N 58°52' E 005°45'0 0.0
2014-Nov-13 12:32N 58°52' E 005°45'0 0.0
2014-Nov-13 11:29N 58°52' E 005°45'0 0.0
2014-Nov-13 10:32N 58°52' E 005°45'0 0.0
2014-Nov-13 09:32N 58°52' E 005°45'0 0.0
2014-Nov-13 08:29N 58°52' E 005°45'0 0.0
2014-Nov-13 07:32N 58°52' E 005°45'0 0.0
2014-Nov-13 06:32N 58°52' E 005°45'0 0.0
2014-Nov-13 05:32N 58°52' E 005°45'0 0.0
2014-Nov-13 04:32N 58°52' E 005°45'0 0.0
2014-Nov-13 03:32N 58°52' E 005°45'0 0.0
2014-Nov-13 02:32N 58°52' E 005°45'0 0.0
2014-Nov-13 01:32N 58°52' E 005°45'0 0.0
2014-Nov-13 00:32N 58°52' E 005°45'0 0.0
2014-Nov-12 23:32N 58°52' E 005°45'0 0.0
2014-Nov-12 22:32N 58°52' E 005°45'0 0.0
2014-Nov-12 21:29N 58°52' E 005°45'0 0.0
2014-Nov-12 20:32N 58°52' E 005°45'0 0.0
2014-Nov-12 19:32N 58°52' E 005°45'0 0.0
2014-Nov-12 18:32N 58°52' E 005°45'0 0.0
2014-Nov-12 17:32N 58°52' E 005°45'0 0.0
2014-Nov-12 16:32N 58°52' E 005°45'0 0.0
2014-Nov-12 15:32N 58°52' E 005°45'0 0.0
2014-Nov-12 14:32N 58°52' E 005°45'0 0.0
2014-Nov-12 13:32N 58°52' E 005°45'0 0.0
2014-Nov-12 12:32N 58°52' E 005°45'0 0.0
2014-Nov-12 11:32N 58°52' E 005°45'0 0.0
2014-Nov-12 10:32N 58°52' E 005°45'0 0.0
2014-Nov-12 09:32N 58°52' E 005°45'0 0.0
2014-Nov-12 08:29N 58°52' E 005°45'0 0.0
2014-Nov-12 07:32N 58°52' E 005°45'0 0.0
2014-Nov-12 06:32N 58°52' E 005°45'0 0.0
2014-Nov-12 05:29N 58°52' E 005°45'0 0.0
2014-Nov-12 04:32N 58°52' E 005°45'0 0.0
2014-Nov-12 03:32N 58°52' E 005°45'0 0.0
2014-Nov-12 02:32N 58°52' E 005°45'0 0.0
2014-Nov-12 01:32N 58°52' E 005°45'0 0.0
2014-Nov-12 00:32N 58°52' E 005°45'0 0.0
2014-Nov-11 23:32N 58°52' E 005°45'0 0.0
2014-Nov-11 22:32N 58°52' E 005°45'0 0.0
2014-Nov-11 21:32N 58°52' E 005°45'0 0.0
2014-Nov-11 20:32N 58°52' E 005°45'0 0.0
2014-Nov-11 19:32N 58°52' E 005°45'0 0.0
2014-Nov-11 18:32N 58°52' E 005°45'0 0.0
2014-Nov-11 17:32N 58°52' E 005°45'0 0.0
2014-Nov-11 16:32N 58°52' E 005°45'0 0.0
2014-Nov-11 15:32N 58°52' E 005°45'0 0.0
2014-Nov-11 14:32N 58°52' E 005°45'0 0.0
2014-Nov-11 13:32N 58°52' E 005°45'0 0.0
2014-Nov-11 12:32N 58°52' E 005°45'0 0.0
2014-Nov-11 11:32N 58°52' E 005°45'0 0.0
2014-Nov-11 10:32N 58°52' E 005°45'0 0.0
2014-Nov-11 09:32N 58°52' E 005°45'0 0.0
2014-Nov-11 08:32N 58°52' E 005°45'0 0.0
2014-Nov-11 07:32N 58°52' E 005°45'0 0.0
2014-Nov-11 06:32N 58°52' E 005°45'0 0.0
2014-Nov-11 05:32N 58°52' E 005°45'0 0.0
2014-Nov-11 04:32N 58°52' E 005°45'0 0.0
2014-Nov-11 03:32N 58°52' E 005°45'0 0.0
2014-Nov-11 02:32N 58°52' E 005°45'0 0.0
2014-Nov-11 01:32N 58°52' E 005°45'0 0.0
2014-Nov-11 00:32N 58°52' E 005°45'0 0.0
2014-Nov-10 23:32N 58°52' E 005°45'0 0.0
2014-Nov-10 22:32N 58°52' E 005°45'0 0.0
2014-Nov-10 21:32N 58°52' E 005°45'0 0.0
2014-Nov-10 20:32N 58°52' E 005°45'0 0.0
2014-Nov-10 19:32N 58°52' E 005°45'0 0.0
2014-Nov-10 18:32N 58°52' E 005°45'0 0.0
2014-Nov-10 17:32N 58°52' E 005°45'0 0.0
2014-Nov-10 16:32N 58°52' E 005°45'0 0.0
2014-Nov-10 15:32N 58°52' E 005°45'0 0.0
2014-Nov-10 14:32N 58°52' E 005°45'0 0.0
2014-Nov-10 13:32N 58°52' E 005°45'0 0.0
2014-Nov-10 12:29N 58°52' E 005°45'0 0.0
2014-Nov-10 11:32N 58°52' E 005°45'0 0.0
2014-Nov-10 10:32N 58°52' E 005°45'0 0.0
2014-Nov-10 09:32N 58°52' E 005°45'0 0.0
2014-Nov-10 08:32N 58°52' E 005°45'0 0.0
2014-Nov-10 07:32N 58°52' E 005°45'0 0.0
2014-Nov-10 06:32N 58°52' E 005°45'0 0.0
2014-Nov-10 05:32N 58°52' E 005°45'0 0.0
2014-Nov-10 04:32N 58°52' E 005°45'0 0.0
2014-Nov-10 03:32N 58°52' E 005°45'0 0.0
2014-Nov-10 02:32N 58°52' E 005°45'  

Dump ship's entire track history